Time;durP1;ratioP1;P1;durP2;ratioP2;P2;SDS_P1;SDS_P2;PMS_P1;PMS_P2;Temp;Humidity;BMP_temperature;BMP_pressure;BME280_temperature;BME280_humidity;BME280_pressure;Samples;Min_cycle;Max_cycle;Signal;HPM_P1;HPM_P2
2024/02/25 00:00:19;;;;;;;7.10;6.50;;;;;;;-146.18;100.00;67994.34;10352490;27;20488;-70
2024/02/25 00:05:16;;;;;;;6.63;6.13;;;;;;;-146.18;100.00;67994.34;10360736;27;20051;-70
2024/02/25 00:10:12;;;;;;;6.60;6.07;;;;;;;-146.18;100.00;67994.34;10355990;27;20052;-71
2024/02/25 00:15:09;;;;;;;6.97;6.38;;;;;;;-146.18;100.00;67994.34;10358675;27;20072;-71
2024/02/25 00:20:06;;;;;;;7.13;6.63;;;;;;;-146.18;100.00;67994.34;10336295;27;20087;-71
2024/02/25 00:25:03;;;;;;;7.38;6.80;;;;;;;-146.18;100.00;67994.34;10342922;28;20829;-71
2024/02/25 00:29:59;;;;;;;7.28;6.65;;;;;;;-146.18;100.00;67994.34;10341204;28;20461;-71
2024/02/25 00:34:56;;;;;;;6.97;6.30;;;;;;;-146.18;100.00;67994.34;10346509;28;20040;-70
2024/02/25 00:39:52;;;;;;;13.00;6.47;;;;;;;-146.18;100.00;67994.34;10337451;27;20133;-71
2024/02/25 00:44:49;;;;;;;7.10;6.60;;;;;;;-146.18;100.00;67994.34;10341953;28;20055;-71
2024/02/25 00:49:47;;;;;;;6.63;6.13;;;;;;;-146.18;100.00;67994.34;10350997;27;20168;-71
2024/02/25 00:54:45;;;;;;;7.15;6.50;;;;;;;-146.18;100.00;67994.34;10344139;27;20043;-71
2024/02/25 00:59:41;;;;;;;7.32;6.72;;;;;;;-146.18;100.00;67994.34;10353652;27;20143;-72
2024/02/25 01:04:38;;;;;;;7.45;6.85;;;;;;;-146.18;100.00;67994.34;10347966;27;20058;-71
2024/02/25 01:09:34;;;;;;;8.07;7.28;;;;;;;-146.18;100.00;67994.34;10345781;27;20318;-70
2024/02/25 01:14:31;;;;;;;7.82;7.10;;;;;;;-146.18;100.00;67994.34;10357360;27;20043;-71
2024/02/25 01:19:28;;;;;;;7.55;6.95;;;;;;;-146.18;100.00;67994.34;10350656;27;20051;-72
2024/02/25 01:24:24;;;;;;;8.23;7.50;;;;;;;-146.18;100.00;67994.34;10337408;27;20052;-70
2024/02/25 01:29:21;;;;;;;7.18;6.68;;;;;;;-146.18;100.00;67994.34;10344798;27;20082;-71
2024/02/25 01:34:19;;;;;;;8.50;7.88;;;;;;;-146.18;100.00;67994.34;10350413;27;20054;-70
2024/02/25 01:39:16;;;;;;;8.18;7.50;;;;;;;-146.18;100.00;67994.34;10354451;27;20116;-70
2024/02/25 01:44:12;;;;;;;8.80;8.10;;;;;;;-146.18;100.00;67994.34;10339942;27;20495;-71
2024/02/25 01:49:09;;;;;;;8.80;8.10;;;;;;;-146.18;100.00;67994.34;10350884;27;20059;-70
2024/02/25 01:54:06;;;;;;;8.85;8.13;;;;;;;-146.18;100.00;67994.34;10346106;27;20067;-71
2024/02/25 01:59:02;;;;;;;8.63;7.82;;;;;;;-146.18;100.00;67994.34;10344218;27;20056;-71
2024/02/25 02:03:59;;;;;;;8.20;7.60;;;;;;;-146.18;100.00;67994.34;10349139;27;20048;-70
2024/02/25 02:08:55;;;;;;;9.18;8.15;;;;;;;-146.18;100.00;67994.34;10349099;27;20044;-70
2024/02/25 02:13:53;;;;;;;8.90;8.05;;;;;;;-146.18;100.00;67994.34;10341135;27;20040;-71
2024/02/25 02:18:49;;;;;;;8.63;7.93;;;;;;;-146.18;100.00;67994.34;10348357;28;20143;-71
2024/02/25 02:23:46;;;;;;;8.82;8.13;;;;;;;-146.18;100.00;67994.34;10344395;27;20036;-72
2024/02/25 02:28:43;;;;;;;8.88;8.15;;;;;;;-146.18;100.00;67994.34;10350847;27;20492;-70
2024/02/25 02:33:40;;;;;;;8.75;8.07;;;;;;;-146.18;100.00;67994.34;10349608;27;20047;-70
2024/02/25 02:38:37;;;;;;;9.05;8.35;;;;;;;-146.18;100.00;67994.34;10350702;27;20071;-70
2024/02/25 02:43:34;;;;;;;9.13;8.32;;;;;;;-146.18;100.00;67994.34;10350607;27;20051;-71
2024/02/25 02:48:38;;;;;;;8.70;8.10;;;;;;;-146.18;100.00;67994.34;10350453;27;20052;-70
2024/02/25 02:53:35;;;;;;;9.15;8.27;;;;;;;-146.18;100.00;67994.34;10343070;28;20040;-70
2024/02/25 02:58:31;;;;;;;8.70;7.90;;;;;;;-146.18;100.00;67994.34;10347947;27;20102;-70
2024/02/25 03:03:28;;;;;;;8.10;7.35;;;;;;;-146.18;100.00;67994.34;10348773;27;20051;-71
2024/02/25 03:08:25;;;;;;;9.02;8.23;;;;;;;-146.18;100.00;67994.34;10344463;27;20547;-70
2024/02/25 03:13:21;;;;;;;8.32;7.68;;;;;;;-146.18;100.00;67994.34;10349478;27;20048;-70
2024/02/25 03:18:18;;;;;;;8.68;7.97;;;;;;;-146.18;100.00;67994.34;10350109;27;20109;-70
2024/02/25 03:23:15;;;;;;;8.70;8.10;;;;;;;-146.18;100.00;67994.34;10352122;27;20040;-71
2024/02/25 03:28:11;;;;;;;9.93;8.57;;;;;;;-146.18;100.00;67994.34;10351739;27;20055;-71
2024/02/25 03:33:08;;;;;;;8.73;8.02;;;;;;;-146.18;100.00;67994.34;10344405;27;20082;-70
2024/02/25 03:38:04;;;;;;;8.07;7.47;;;;;;;-146.18;100.00;67994.34;10334144;27;20075;-70
2024/02/25 03:43:01;;;;;;;9.00;8.13;;;;;;;-146.18;100.00;67994.34;10347593;27;20127;-71
2024/02/25 03:47:57;;;;;;;9.00;7.90;;;;;;;-146.18;100.00;67994.34;10354481;27;20059;-70
2024/02/25 03:52:54;;;;;;;8.30;7.72;;;;;;;-146.18;100.00;67994.34;10350537;27;20524;-71
2024/02/25 03:57:50;;;;;;;8.45;7.75;;;;;;;-146.18;100.00;67994.34;10349404;27;20053;-71
2024/02/25 04:02:47;;;;;;;9.05;8.25;;;;;;;-146.18;100.00;67994.34;10351034;27;20036;-72
2024/02/25 04:07:44;;;;;;;8.63;7.78;;;;;;;-146.18;100.00;67994.34;10344750;27;20127;-71
2024/02/25 04:12:41;;;;;;;8.85;8.15;;;;;;;-146.18;100.00;67994.34;10358326;27;20148;-71
2024/02/25 04:17:37;;;;;;;8.45;7.85;;;;;;;-146.18;100.00;67994.34;10355876;27;20050;-70
2024/02/25 04:22:34;;;;;;;8.82;7.95;;;;;;;-146.18;100.00;67994.34;10356519;27;20074;-71
2024/02/25 04:27:30;;;;;;;8.23;7.50;;;;;;;-146.18;100.00;67994.34;10363175;28;20596;-71
2024/02/25 04:32:27;;;;;;;8.60;7.90;;;;;;;-146.18;100.00;67994.34;10360860;27;20363;-70
2024/02/25 04:37:24;;;;;;;8.77;8.00;;;;;;;-146.18;100.00;67994.34;10357277;27;20040;-70
2024/02/25 04:42:20;;;;;;;8.10;7.50;;;;;;;-146.18;100.00;67994.34;10356191;27;20044;-71
2024/02/25 04:47:17;;;;;;;8.70;7.72;;;;;;;-146.18;100.00;67994.34;10363368;27;20108;-72
2024/02/25 04:52:13;;;;;;;8.40;7.80;;;;;;;-146.18;100.00;67994.34;10345165;28;20075;-71
2024/02/25 04:57:09;;;;;;;8.45;7.57;;;;;;;-146.18;100.00;67994.34;10342348;28;20040;-70
2024/02/25 05:02:06;;;;;;;8.30;7.65;;;;;;;-146.18;100.00;67994.34;10355827;27;20056;-70
2024/02/25 05:07:03;;;;;;;8.18;7.57;;;;;;;-146.18;100.00;67994.34;10351307;27;20056;-71
2024/02/25 05:11:59;;;;;;;8.20;7.45;;;;;;;-146.18;100.00;67994.34;10347809;27;20101;-71
2024/02/25 05:16:56;;;;;;;8.18;7.38;;;;;;;-146.18;100.00;67994.34;10348224;27;20524;-70
2024/02/25 05:21:53;;;;;;;7.97;7.30;;;;;;;-146.18;100.00;67994.34;10341767;27;20094;-71
2024/02/25 05:26:49;;;;;;;8.63;7.82;;;;;;;-146.18;100.00;67994.34;10356468;27;20086;-71
2024/02/25 05:31:46;;;;;;;8.07;7.38;;;;;;;-146.18;100.00;67994.34;10369667;27;20043;-70
2024/02/25 05:36:43;;;;;;;8.10;7.40;;;;;;;-146.18;100.00;67994.34;10355325;27;20101;-72
2024/02/25 05:41:39;;;;;;;8.20;7.40;;;;;;;-146.18;100.00;67994.34;10360971;27;20976;-70
2024/02/25 05:46:36;;;;;;;7.95;7.18;;;;;;;-146.18;100.00;67994.34;10355774;27;20077;-70
2024/02/25 05:51:34;;;;;;;8.40;7.70;;;;;;;-146.18;100.00;67994.34;10354889;27;20459;-70
2024/02/25 05:56:30;;;;;;;7.70;7.10;;;;;;;-146.18;100.00;67994.34;10353896;27;20478;-70
2024/02/25 06:01:33;;;;;;;8.40;7.60;;;;;;;-146.18;100.00;67994.34;10352515;27;20036;-72
2024/02/25 06:06:30;;;;;;;8.38;7.60;;;;;;;-146.18;100.00;67994.34;10355067;27;20044;-71
2024/02/25 06:11:26;;;;;;;7.63;7.07;;;;;;;-146.18;100.00;67994.34;10348920;27;20127;-71
2024/02/25 06:16:23;;;;;;;8.52;7.70;;;;;;;-146.18;100.00;67994.34;10344250;27;20048;-71
2024/02/25 06:21:20;;;;;;;8.25;7.60;;;;;;;-146.18;100.00;67994.34;10343364;27;20106;-71
2024/02/25 06:26:16;;;;;;;8.20;7.50;;;;;;;-146.18;100.00;67994.34;10347220;27;20044;-70
2024/02/25 06:31:13;;;;;;;8.10;7.22;;;;;;;-146.18;100.00;67994.34;10349751;27;20055;-71
2024/02/25 06:36:20;;;;;;;7.88;7.18;;;;;;;-146.18;100.00;67994.34;10359264;27;20047;-70
2024/02/25 06:41:23;;;;;;;7.80;7.10;;;;;;;-146.18;100.00;67994.34;10341347;27;20043;-70
2024/02/25 06:46:20;;;;;;;6.57;6.03;;;;;;;-146.18;100.00;67994.34;10352774;27;20397;-69
2024/02/25 06:51:26;;;;;;;6.40;5.90;;;;;;;-146.18;100.00;67994.34;10351851;27;20109;-71
2024/02/25 06:56:23;;;;;;;6.72;6.10;;;;;;;-146.18;100.00;67994.34;10354827;27;20048;-70
2024/02/25 07:01:20;;;;;;;5.85;5.38;;;;;;;-146.18;100.00;67994.34;10354294;27;20383;-70
2024/02/25 07:06:20;;;;;;;6.15;5.50;;;;;;;-146.18;100.00;67994.34;10347920;27;20044;-70
2024/02/25 07:11:18;;;;;;;5.18;4.78;;;;;;;-146.18;100.00;67994.34;10352546;27;20712;-70
2024/02/25 07:16:15;;;;;;;6.15;5.65;;;;;;;-146.18;100.00;67994.34;10349760;27;20047;-70
2024/02/25 07:21:13;;;;;;;5.80;5.30;;;;;;;-146.18;100.00;67994.34;10348407;27;20059;-71
2024/02/25 07:26:11;;;;;;;5.75;5.18;;;;;;;-146.18;100.00;67994.34;10339799;28;20071;-70
2024/02/25 07:31:18;;;;;;;6.03;5.47;;;;;;;-146.18;100.00;67994.34;10351464;27;20044;-70
2024/02/25 07:36:16;;;;;;;6.47;5.00;;;;;;;-146.18;100.00;67994.34;10347449;27;20150;-70
2024/02/25 07:41:13;;;;;;;5.18;4.75;;;;;;;-146.18;100.00;67994.34;10355928;27;20116;-70
2024/02/25 07:46:10;;;;;;;5.20;4.70;;;;;;;-146.18;100.00;67994.34;10356891;27;20051;-70
2024/02/25 07:51:06;;;;;;;6.95;4.80;;;;;;;-146.18;100.00;67994.34;10353206;27;20062;-70
2024/02/25 07:56:03;;;;;;;5.10;4.57;;;;;;;-146.18;100.00;67994.34;10365183;27;20052;-70
2024/02/25 08:00:59;;;;;;;5.00;4.50;;;;;;;-146.18;100.00;67994.34;10339378;28;20132;-70
2024/02/25 08:05:56;;;;;;;4.85;4.25;;;;;;;-146.18;100.00;67994.34;10363328;27;20474;-70
2024/02/25 08:10:52;;;;;;;5.15;4.68;;;;;;;-146.18;100.00;67994.34;10352725;27;20059;-70
2024/02/25 08:15:49;;;;;;;5.45;4.95;;;;;;;-146.18;100.00;67994.34;10348305;27;20071;-70
2024/02/25 08:20:45;;;;;;;5.75;4.30;;;;;;;-146.18;100.00;67994.34;10361381;27;20073;-72
2024/02/25 08:25:42;;;;;;;7.20;5.35;;;;;;;-146.18;100.00;67994.34;10358178;27;20164;-70
2024/02/25 08:30:38;;;;;;;10.18;4.80;;;;;;;-146.18;100.00;67994.34;10343672;27;20093;-69
2024/02/25 08:35:35;;;;;;;5.13;4.63;;;;;;;-146.18;100.00;67994.34;10354844;27;20048;-70
2024/02/25 08:40:32;;;;;;;6.10;4.97;;;;;;;-146.18;100.00;67994.34;10355122;27;20082;-70
2024/02/25 08:45:28;;;;;;;5.63;4.50;;;;;;;-146.18;100.00;67994.34;10337669;28;20415;-70
2024/02/25 08:50:26;;;;;;;5.60;4.82;;;;;;;-146.18;100.00;67994.34;10347584;27;20044;-70
2024/02/25 08:55:23;;;;;;;4.93;4.53;;;;;;;-146.18;100.00;67994.34;10346870;27;20573;-71
2024/02/25 09:00:20;;;;;;;5.22;4.72;;;;;;;-146.18;100.00;67994.34;10352955;27;20048;-69
2024/02/25 09:05:16;;;;;;;8.50;5.18;;;;;;;-146.18;100.00;67994.34;10346819;27;20033;-70
2024/02/25 09:10:18;;;;;;;7.65;4.65;;;;;;;-146.18;100.00;67994.34;10357786;27;20053;-70
2024/02/25 09:15:16;;;;;;;5.35;4.85;;;;;;;-146.18;100.00;67994.34;10352092;27;20457;-70
2024/02/25 09:20:13;;;;;;;8.85;4.00;;;;;;;-146.18;100.00;67994.34;10353090;27;20047;-71
2024/02/25 09:25:10;;;;;;;4.72;4.10;;;;;;;-146.18;100.00;67994.34;10349045;27;20492;-71
2024/02/25 09:30:07;;;;;;;7.30;3.70;;;;;;;-146.18;100.00;67994.34;10350365;27;20052;-70
2024/02/25 09:35:04;;;;;;;4.82;3.90;;;;;;;-146.18;100.00;67994.34;10345598;27;20569;-70
2024/02/25 09:40:01;;;;;;;5.85;3.67;;;;;;;-146.18;100.00;67994.34;10348023;28;20093;-70
2024/02/25 09:44:58;;;;;;;5.72;3.65;;;;;;;-146.18;100.00;67994.34;10351692;28;20042;-70
2024/02/25 09:49:55;;;;;;;4.10;3.70;;;;;;;-146.18;100.00;67994.34;10358060;27;20097;-70
2024/02/25 09:54:53;;;;;;;4.20;3.60;;;;;;;-146.18;100.00;67994.34;10354406;27;20076;-70
2024/02/25 09:59:50;;;;;;;4.22;3.83;;;;;;;-146.18;100.00;67994.34;10352156;27;20821;-70
2024/02/25 10:04:46;;;;;;;3.90;3.30;;;;;;;-146.18;100.00;67994.34;10341859;28;20085;-70
2024/02/25 10:09:43;;;;;;;4.00;3.63;;;;;;;-146.18;100.00;67994.34;10344602;28;20053;-70
2024/02/25 10:14:41;;;;;;;4.15;3.75;;;;;;;-146.18;100.00;67994.34;10350351;27;20044;-70
2024/02/25 10:19:37;;;;;;;4.07;3.67;;;;;;;-146.18;100.00;67994.34;10351105;27;20075;-70
2024/02/25 10:24:34;;;;;;;4.03;3.60;;;;;;;-146.18;100.00;67994.34;10344834;28;20044;-70
2024/02/25 10:29:30;;;;;;;4.90;3.33;;;;;;;-146.18;100.00;67994.34;10346004;27;20539;-70
2024/02/25 10:34:29;;;;;;;5.03;3.50;;;;;;;-146.18;100.00;67994.34;10344471;27;20059;-69
2024/02/25 10:39:26;;;;;;;4.55;3.38;;;;;;;-146.18;100.00;67994.34;10360613;27;20074;-70
2024/02/25 10:44:23;;;;;;;3.80;3.40;;;;;;;-146.18;100.00;67994.34;10342410;28;20040;-70
2024/02/25 10:49:21;;;;;;;6.05;3.63;;;;;;;-146.18;100.00;67994.34;10348763;27;20105;-72
2024/02/25 10:54:18;;;;;;;4.80;3.30;;;;;;;-146.18;100.00;67994.34;10344758;27;20104;-69
2024/02/25 10:59:16;;;;;;;4.60;3.35;;;;;;;-146.18;100.00;67994.34;10349008;27;20036;-70
2024/02/25 11:04:13;;;;;;;3.80;3.35;;;;;;;-146.18;100.00;67994.34;10333723;27;20047;-71
2024/02/25 11:09:14;;;;;;;6.30;3.80;;;;;;;-146.18;100.00;67994.34;10332195;28;20040;-70
2024/02/25 11:14:19;;;;;;;3.80;3.15;;;;;;;-146.18;100.00;67994.34;10336021;28;20048;-69
2024/02/25 11:19:20;;;;;;;4.10;3.35;;;;;;;-146.18;100.00;67994.34;10350456;27;20051;-70
2024/02/25 11:24:47;;;;;;;6.18;3.42;;;;;;;-146.18;100.00;67994.34;10346955;27;20415;-70
2024/02/25 11:29:44;;;;;;;5.35;3.80;;;;;;;-146.18;100.00;67994.34;10346041;28;20051;-70
2024/02/25 11:34:40;;;;;;;4.88;3.78;;;;;;;-146.18;100.00;67994.34;10340971;27;20032;-71
2024/02/25 11:39:37;;;;;;;4.30;3.90;;;;;;;-146.18;100.00;67994.34;10347659;27;20127;-70
2024/02/25 11:44:34;;;;;;;4.43;3.70;;;;;;;-146.18;100.00;67994.34;10345149;27;20047;-69
2024/02/25 11:49:32;;;;;;;6.07;3.60;;;;;;;-146.18;100.00;67994.34;10342119;28;20036;-69
2024/02/25 11:54:29;;;;;;;6.47;3.80;;;;;;;-146.18;100.00;67994.34;10339530;27;20342;-70
2024/02/25 11:59:26;;;;;;;4.57;3.80;;;;;;;-146.18;100.00;67994.34;10342273;27;20053;-70
2024/02/25 12:04:22;;;;;;;4.82;3.70;;;;;;;-146.18;100.00;67994.34;10330874;27;20045;-69
2024/02/25 12:09:24;;;;;;;5.18;4.00;;;;;;;-146.18;100.00;67994.34;10348799;27;20517;-69
2024/02/25 12:14:21;;;;;;;6.10;4.07;;;;;;;-146.18;100.00;67994.34;10356984;27;20502;-69
2024/02/25 12:19:18;;;;;;;4.45;4.05;;;;;;;-146.18;100.00;67994.34;10349161;27;20044;-69
2024/02/25 12:24:16;;;;;;;5.13;4.25;;;;;;;-146.18;100.00;67994.34;10349762;27;20050;-69
2024/02/25 12:29:15;;;;;;;4.30;3.90;;;;;;;-146.18;100.00;67994.34;10353541;27;20055;-70
2024/02/25 12:34:11;;;;;;;4.90;4.00;;;;;;;-146.18;100.00;67994.34;10359328;27;20060;-69
2024/02/25 12:39:13;;;;;;;4.78;3.75;;;;;;;-146.18;100.00;67994.34;10349757;27;20089;-69
2024/02/25 12:44:11;;;;;;;5.03;3.50;;;;;;;-146.18;100.00;67994.34;10337302;27;20123;-69
2024/02/25 12:49:13;;;;;;;4.18;3.60;;;;;;;-146.18;100.00;67994.34;10355763;27;20048;-69
2024/02/25 12:54:10;;;;;;;4.57;3.40;;;;;;;-146.18;100.00;67994.34;10342936;28;20138;-70
2024/02/25 12:59:10;;;;;;;5.05;4.00;;;;;;;-146.18;100.00;67994.34;10358749;27;20048;-70
2024/02/25 13:04:09;;;;;;;4.93;3.80;;;;;;;-146.18;100.00;67994.34;10352534;27;20117;-71
2024/02/25 13:09:06;;;;;;;4.80;4.00;;;;;;;-146.18;100.00;67994.34;10355655;27;20759;-70
2024/02/25 13:14:03;;;;;;;5.05;4.45;;;;;;;-146.18;100.00;67994.34;10361737;27;20071;-71
2024/02/25 13:19:00;;;;;;;4.40;4.00;;;;;;;-146.18;100.00;67994.34;10353836;27;20645;-70
2024/02/25 13:23:56;;;;;;;4.70;4.20;;;;;;;-146.18;100.00;67994.34;10346211;27;20081;-72
2024/02/25 13:28:53;;;;;;;4.50;4.10;;;;;;;-146.18;100.00;67994.34;10337106;27;20044;-70
2024/02/25 13:33:50;;;;;;;5.82;3.90;;;;;;;-146.18;100.00;67994.34;10348225;27;20047;-71
2024/02/25 13:38:47;;;;;;;4.78;4.20;;;;;;;-146.18;100.00;67994.34;10337187;27;20525;-71
2024/02/25 13:43:44;;;;;;;5.20;4.50;;;;;;;-146.18;100.00;67994.34;10347914;27;20044;-71
2024/02/25 13:48:43;;;;;;;5.03;4.00;;;;;;;-146.18;100.00;67994.34;10351347;27;20035;-71
2024/02/25 13:53:40;;;;;;;5.05;4.45;;;;;;;-146.18;100.00;67994.34;10349824;27;20063;-71
2024/02/25 13:58:36;;;;;;;5.75;5.00;;;;;;;-146.18;100.00;67994.34;10340768;27;20052;-71
2024/02/25 14:03:33;;;;;;;5.28;4.82;;;;;;;-146.18;100.00;67994.34;10344497;27;20372;-72
2024/02/25 14:08:30;;;;;;;5.53;5.13;;;;;;;-146.18;100.00;67994.34;10346707;27;20400;-71
2024/02/25 14:13:26;;;;;;;6.13;5.72;;;;;;;-146.18;100.00;67994.34;10345213;27;20127;-71
2024/02/25 14:18:23;;;;;;;6.47;5.88;;;;;;;-146.18;100.00;67994.34;10351249;27;20428;-71
2024/02/25 14:23:19;;;;;;;5.18;4.75;;;;;;;-146.18;100.00;67994.34;10351910;27;20135;-72
2024/02/25 14:28:16;;;;;;;5.28;4.65;;;;;;;-146.18;100.00;67994.34;10350851;27;20094;-71
2024/02/25 14:33:13;;;;;;;4.18;3.78;;;;;;;-146.18;100.00;67994.34;10346279;27;20048;-71
2024/02/25 14:38:09;;;;;;;4.57;3.95;;;;;;;-146.18;100.00;67994.34;10333319;28;20134;-71
2024/02/25 14:43:06;;;;;;;4.50;4.10;;;;;;;-146.18;100.00;67994.34;10350047;27;20052;-72
2024/02/25 14:48:03;;;;;;;4.57;4.03;;;;;;;-146.18;100.00;67994.34;10354303;27;20056;-72
2024/02/25 14:53:00;;;;;;;4.75;4.28;;;;;;;-146.18;100.00;67994.34;10336078;27;20136;-71
2024/02/25 14:57:56;;;;;;;5.47;4.38;;;;;;;-146.18;100.00;67994.34;10342712;27;20040;-72
2024/02/25 15:02:53;;;;;;;4.20;3.90;;;;;;;-146.18;100.00;67994.34;10353157;27;20444;-71
2024/02/25 15:07:51;;;;;;;4.90;4.50;;;;;;;-146.18;100.00;67994.34;10348957;27;20044;-73
2024/02/25 15:12:47;;;;;;;5.50;5.00;;;;;;;-146.18;100.00;67994.34;10348504;27;20521;-72
2024/02/25 15:17:44;;;;;;;4.70;4.30;;;;;;;-146.18;100.00;67994.34;10349003;27;20048;-71
2024/02/25 15:22:41;;;;;;;5.07;4.45;;;;;;;-146.18;100.00;67994.34;10346059;27;20044;-72
2024/02/25 15:27:41;;;;;;;5.00;4.40;;;;;;;-146.18;100.00;67994.34;10350293;27;20047;-71
2024/02/25 15:32:37;;;;;;;4.65;4.22;;;;;;;-146.18;100.00;67994.34;10348549;27;20450;-71
2024/02/25 15:37:34;;;;;;;4.90;4.50;;;;;;;-146.18;100.00;67994.34;10347458;27;20408;-72
2024/02/25 15:42:31;;;;;;;5.18;4.78;;;;;;;-146.18;100.00;67994.34;10344608;27;20573;-72
2024/02/25 15:47:27;;;;;;;6.00;5.50;;;;;;;-146.18;100.00;67994.34;10339602;28;20557;-71
2024/02/25 15:52:24;;;;;;;6.70;5.00;;;;;;;-146.18;100.00;67994.34;10350997;27;20059;-73
2024/02/25 15:57:20;;;;;;;5.03;4.63;;;;;;;-146.18;100.00;67994.34;10346594;27;20662;-71
2024/02/25 16:02:19;;;;;;;5.47;4.97;;;;;;;-146.18;100.00;67994.34;10358184;27;20050;-72
2024/02/25 16:07:17;;;;;;;5.75;4.97;;;;;;;-146.18;100.00;67994.34;10349496;27;20048;-72
2024/02/25 16:12:14;;;;;;;5.07;4.68;;;;;;;-146.18;100.00;67994.34;10347629;27;20056;-73
2024/02/25 16:17:14;;;;;;;5.30;4.72;;;;;;;-146.18;100.00;67994.34;10361104;27;20051;-71
2024/02/25 16:22:10;;;;;;;6.22;5.68;;;;;;;-146.18;100.00;67994.34;10361211;27;20052;-71
2024/02/25 16:27:07;;;;;;;6.30;5.70;;;;;;;-146.18;100.00;67994.34;10348412;27;20049;-71
2024/02/25 16:32:04;;;;;;;6.25;5.75;;;;;;;-146.18;100.00;67994.34;10357146;27;20040;-71
2024/02/25 16:37:01;;;;;;;7.00;6.30;;;;;;;-146.18;100.00;67994.34;10358449;27;20101;-71
2024/02/25 16:41:57;;;;;;;6.93;6.40;;;;;;;-146.18;100.00;67994.34;10340072;27;20552;-71
2024/02/25 16:46:54;;;;;;;6.90;6.30;;;;;;;-146.18;100.00;67994.34;10350887;27;20131;-71
2024/02/25 16:51:50;;;;;;;6.88;5.68;;;;;;;-146.18;100.00;67994.34;10352072;27;20420;-71
2024/02/25 16:56:49;;;;;;;6.03;5.53;;;;;;;-146.18;100.00;67994.34;10353326;27;20040;-73
2024/02/25 17:01:48;;;;;;;5.97;5.50;;;;;;;-146.18;100.00;67994.34;10348092;27;20468;-72
2024/02/25 17:06:44;;;;;;;6.13;5.55;;;;;;;-146.18;100.00;67994.34;10350035;27;20040;-72
2024/02/25 17:11:41;;;;;;;6.03;5.50;;;;;;;-146.18;100.00;67994.34;10351042;27;20135;-72
2024/02/25 17:16:37;;;;;;;6.72;6.13;;;;;;;-146.18;100.00;67994.34;10351229;27;20453;-72
2024/02/25 17:21:39;;;;;;;6.50;5.85;;;;;;;-146.18;100.00;67994.34;10350871;27;20071;-72
2024/02/25 17:26:36;;;;;;;8.05;7.25;;;;;;;-146.18;100.00;67994.34;10355876;28;20036;-72
2024/02/25 17:31:32;;;;;;;7.50;6.90;;;;;;;-146.18;100.00;67994.34;10354013;27;20048;-72
2024/02/25 17:36:29;;;;;;;7.45;6.85;;;;;;;-146.18;100.00;67994.34;10347812;28;20054;-73
2024/02/25 17:41:25;;;;;;;9.93;9.02;;;;;;;-146.18;100.00;67994.34;10354988;27;20051;-73
2024/02/25 17:46:22;;;;;;;9.45;8.40;;;;;;;-146.18;100.00;67994.34;10357707;27;20501;-73
2024/02/25 17:51:19;;;;;;;9.32;8.18;;;;;;;-146.18;100.00;67994.34;10360643;27;20094;-72
2024/02/25 17:56:16;;;;;;;9.55;8.60;;;;;;;-146.18;100.00;67994.34;10354601;27;20043;-73
2024/02/25 18:01:13;;;;;;;9.05;8.25;;;;;;;-146.18;100.00;67994.34;10352542;28;20055;-72
2024/02/25 18:06:09;;;;;;;9.18;8.43;;;;;;;-146.18;100.00;67994.34;10344831;28;20041;-73
2024/02/25 18:11:06;;;;;;;11.20;10.10;;;;;;;-146.18;100.00;67994.34;10347670;28;20055;-73
2024/02/25 18:16:05;;;;;;;11.70;9.95;;;;;;;-146.18;100.00;67994.34;10360605;27;20051;-73
2024/02/25 18:21:02;;;;;;;12.98;10.90;;;;;;;-146.18;100.00;67994.34;10350976;27;20043;-72
2024/02/25 18:25:58;;;;;;;11.18;10.07;;;;;;;-146.18;100.00;67994.34;10349527;27;20044;-73
2024/02/25 18:30:55;;;;;;;10.75;9.65;;;;;;;-146.18;100.00;67994.34;10336148;27;20059;-74
2024/02/25 18:35:51;;;;;;;10.65;9.57;;;;;;;-146.18;100.00;67994.34;10359357;27;20059;-73
2024/02/25 18:40:48;;;;;;;12.93;9.93;;;;;;;-146.18;100.00;67994.34;10352527;27;20052;-75
2024/02/25 18:45:52;;;;;;;9.90;9.05;;;;;;;-146.18;100.00;67994.34;10341530;27;20169;-74
2024/02/25 18:50:48;;;;;;;9.52;8.63;;;;;;;-146.18;100.00;67994.34;10342608;27;20201;-73
2024/02/25 18:55:46;;;;;;;9.43;8.52;;;;;;;-146.18;100.00;67994.34;10348410;27;20043;-74
2024/02/25 19:00:43;;;;;;;10.15;9.25;;;;;;;-146.18;100.00;67994.34;10347693;28;20048;-73
2024/02/25 19:05:40;;;;;;;8.60;7.80;;;;;;;-146.18;100.00;67994.34;10358773;27;20064;-73
2024/02/25 19:10:36;;;;;;;9.15;8.35;;;;;;;-146.18;100.00;67994.34;10353194;27;20043;-74
2024/02/25 19:15:33;;;;;;;9.35;8.45;;;;;;;-146.18;100.00;67994.34;10341564;27;20052;-74
2024/02/25 19:20:30;;;;;;;8.82;8.13;;;;;;;-146.18;100.00;67994.34;10342219;27;20067;-74
2024/02/25 19:25:26;;;;;;;9.82;9.02;;;;;;;-146.18;100.00;67994.34;10354796;27;20074;-73
2024/02/25 19:30:23;;;;;;;9.60;8.90;;;;;;;-146.18;100.00;67994.34;10346610;27;20072;-73
2024/02/25 19:35:20;;;;;;;9.85;9.05;;;;;;;-146.18;100.00;67994.34;10349096;27;20100;-73
2024/02/25 19:40:16;;;;;;;10.27;9.38;;;;;;;-146.18;100.00;67994.34;10364673;27;20067;-73
2024/02/25 19:45:13;;;;;;;10.38;9.38;;;;;;;-146.18;100.00;67994.34;10355072;27;20052;-73
2024/02/25 19:50:09;;;;;;;10.32;9.32;;;;;;;-146.18;100.00;67994.34;10354257;27;20036;-73
2024/02/25 19:55:06;;;;;;;11.40;10.30;;;;;;;-146.18;100.00;67994.34;10354914;28;20037;-73
2024/02/25 20:00:04;;;;;;;10.43;9.52;;;;;;;-146.18;100.00;67994.34;10357049;27;20040;-72
2024/02/25 20:05:02;;;;;;;11.20;10.20;;;;;;;-146.18;100.00;67994.34;10357938;27;20060;-73
2024/02/25 20:09:59;;;;;;;9.65;8.73;;;;;;;-146.18;100.00;67994.34;10349502;28;20072;-72
2024/02/25 20:14:57;;;;;;;12.85;9.60;;;;;;;-146.18;100.00;67994.34;10355526;27;20146;-73
2024/02/25 20:19:57;;;;;;;10.27;9.32;;;;;;;-146.18;100.00;67994.34;10363284;27;20136;-73
2024/02/25 20:24:54;;;;;;;10.88;9.70;;;;;;;-146.18;100.00;67994.34;10346829;27;20050;-72
2024/02/25 20:29:52;;;;;;;12.05;10.18;;;;;;;-146.18;100.00;67994.34;10355765;27;20074;-73
2024/02/25 20:34:50;;;;;;;12.57;11.27;;;;;;;-146.18;100.00;67994.34;10336279;28;20200;-72
2024/02/25 20:39:46;;;;;;;11.60;10.40;;;;;;;-146.18;100.00;67994.34;10349248;28;20636;-73
2024/02/25 20:44:43;;;;;;;13.70;10.70;;;;;;;-146.18;100.00;67994.34;10339005;28;20089;-74
2024/02/25 20:49:39;;;;;;;12.93;10.20;;;;;;;-146.18;100.00;67994.34;10347049;28;20070;-72
2024/02/25 20:54:37;;;;;;;13.30;10.88;;;;;;;-146.18;100.00;67994.34;10354292;27;20066;-73
2024/02/25 20:59:33;;;;;;;15.25;10.85;;;;;;;-146.18;100.00;67994.34;10342147;27;20085;-74
2024/02/25 21:04:30;;;;;;;14.95;10.73;;;;;;;-146.18;100.00;67994.34;10351187;28;20040;-73
2024/02/25 21:09:26;;;;;;;13.50;10.63;;;;;;;-146.18;100.00;67994.34;10349415;27;20051;-73
2024/02/25 21:14:23;;;;;;;17.98;12.65;;;;;;;-146.18;100.00;67994.34;10346428;27;20772;-74
2024/02/25 21:19:19;;;;;;;18.10;12.27;;;;;;;-146.18;100.00;67994.34;10354231;27;20059;-72
2024/02/25 21:24:16;;;;;;;18.48;11.88;;;;;;;-146.18;100.00;67994.34;10351745;27;20040;-73
2024/02/25 21:29:13;;;;;;;14.52;12.27;;;;;;;-146.18;100.00;67994.34;10321253;27;1080623;-73
2024/02/25 21:34:09;;;;;;;13.90;11.27;;;;;;;-146.18;100.00;67994.34;10353488;27;20503;-72
2024/02/25 21:39:07;;;;;;;15.32;10.98;;;;;;;-146.18;100.00;67994.34;10348612;27;20097;-73
2024/02/25 21:44:03;;;;;;;13.70;10.80;;;;;;;-146.18;100.00;67994.34;10345122;27;20503;-73
2024/02/25 21:49:03;;;;;;;14.75;11.55;;;;;;;-146.18;100.00;67994.34;10349722;27;20052;-73
2024/02/25 21:54:00;;;;;;;16.02;11.82;;;;;;;-146.18;100.00;67994.34;10353462;27;20052;-74
2024/02/25 21:58:58;;;;;;;17.58;12.18;;;;;;;-146.18;100.00;67994.34;10339752;27;20522;-73
2024/02/25 22:03:55;;;;;;;13.95;11.65;;;;;;;-146.18;100.00;67994.34;10349313;27;20085;-74
2024/02/25 22:08:51;;;;;;;12.65;11.00;;;;;;;-146.18;100.00;67994.34;10354442;27;20054;-73